»·PEaware :: N35EA KBFL-KMRY

N35EA :: KBFL-KMRY

FLIGHT INFORMATION

Flight Status: Arrived
Operator: Privately registered:
United States
More flights under this callsign
Pilot: John C. (27555)
Aircraft: BEECH AIRCRAFT DEBONAIR BONANZA
(BE33)
More flights by this aircraft type
Origin: KBFL Meadows
United States
Destination: KMRY Monterey Peninsula
United States
More flights between these airports :: More routes between these airports
Route: +
File this flight plan on PilotEdge
Remarks:
Altitude:
(Current/Filed)
6,500ft
Speed:
(Current/Filed)
0kts
Departed: 08-Aug-20 07:19 PM
Arrived: 08-Aug-20 08:22 PM
Distance/Time
Traveled:
152nm/1:02
Distance/Time
To Go:
Arrived

Flight Plot

Page will automatically refresh every two minutes.

Flight plan parsing failed; only flown route is shown


Map Options




Map Legend


Flown Route
Filed Route
Departure Airport
Arrival Airport
Navaid (VOR, NDB)
Fix

Horizontal Profiles

Position Reports

Time Latitude Longitude Heading Altitude Ground
Speed
08-Aug-20 19:12 35.429371 -119.046101 226 510ft 0kts
08-Aug-20 19:13 35.429371 -119.046101 226 510ft 0kts
08-Aug-20 19:14 35.428656 -119.047018 218 510ft 9kts
08-Aug-20 19:15 35.425749 -119.044691 224 510ft 0kts
08-Aug-20 19:16 35.425749 -119.044691 224 510ft 0kts
08-Aug-20 19:17 35.425609 -119.044902 237 510ft 10kts
08-Aug-20 19:18 35.436713 -119.059597 315 613ft 93kts
08-Aug-20 19:19 35.448448 -119.085973 285 1521ft 92kts
08-Aug-20 19:20 35.453948 -119.118122 285 2320ft 98kts
08-Aug-20 19:21 35.459502 -119.151822 289 3062ft 104kts
08-Aug-20 19:22 35.472602 -119.183553 301 3797ft 106kts
08-Aug-20 19:23 35.486824 -119.216292 301 4530ft 109kts
08-Aug-20 19:25 35.500750 -119.248249 300 5307ft 102kts
08-Aug-20 19:26 35.514709 -119.280290 299 5887ft 112kts
08-Aug-20 19:27 35.530437 -119.316560 299 6378ft 128kts
08-Aug-20 19:28 35.549170 -119.359605 298 6498ft 157kts
08-Aug-20 19:29 35.570728 -119.409270 298 6491ft 167kts
08-Aug-20 19:30 35.592767 -119.460166 298 6429ft 169kts
08-Aug-20 19:31 35.614869 -119.511345 298 6427ft 168kts
08-Aug-20 19:32 35.636752 -119.562060 298 6427ft 167kts
08-Aug-20 19:33 35.658502 -119.612645 298 6427ft 167kts
08-Aug-20 19:34 35.680360 -119.663367 298 6426ft 167kts
08-Aug-20 19:35 35.702153 -119.714111 298 6425ft 167kts
08-Aug-20 19:36 35.723886 -119.764802 298 6424ft 167kts
08-Aug-20 19:37 35.744809 -119.813611 298 6431ft 167kts
08-Aug-20 19:38 35.766558 -119.864471 298 6436ft 168kts
08-Aug-20 19:39 35.788242 -119.915284 298 6438ft 169kts
08-Aug-20 19:40 35.810009 -119.966367 292 6437ft 169kts
08-Aug-20 19:41 35.831512 -120.017149 300 6433ft 167kts
08-Aug-20 19:42 35.853224 -120.066815 294 6444ft 162kts
08-Aug-20 19:42 35.870208 -120.107577 293 6448ft 159kts
08-Aug-20 19:44 35.893995 -120.164034 293 6455ft 159kts
08-Aug-20 19:44 35.911044 -120.204374 293 6457ft 159kts
08-Aug-20 19:45 35.931582 -120.252996 294 6456ft 159kts
08-Aug-20 19:47 35.955603 -120.309920 293 6458ft 159kts
08-Aug-20 19:47 35.972783 -120.350693 293 6461ft 160kts
08-Aug-20 19:48 35.993331 -120.399534 293 6469ft 161kts
08-Aug-20 19:49 36.014160 -120.449147 293 6481ft 163kts
08-Aug-20 19:50 36.035135 -120.499187 294 6493ft 166kts
08-Aug-20 19:51 36.056517 -120.550194 294 6492ft 167kts
08-Aug-20 19:52 36.077898 -120.601314 294 6492ft 167kts
08-Aug-20 19:53 36.099258 -120.652472 293 6492ft 167kts
08-Aug-20 19:54 36.120600 -120.703663 293 6489ft 167kts
08-Aug-20 19:55 36.141812 -120.754631 293 6489ft 166kts
08-Aug-20 19:56 36.163022 -120.805673 293 6489ft 166kts
08-Aug-20 19:57 36.184230 -120.856788 293 6489ft 166kts
08-Aug-20 19:58 36.205332 -120.907727 293 6489ft 166kts
08-Aug-20 19:59 36.226510 -120.958930 293 6490ft 166kts
08-Aug-20 20:00 36.247563 -121.009910 293 6498ft 166kts
08-Aug-20 20:01 36.268514 -121.060732 293 6508ft 164kts
08-Aug-20 20:02 36.289262 -121.111142 293 6517ft 164kts
08-Aug-20 20:03 36.309471 -121.161386 300 6528ft 161kts
08-Aug-20 20:04 36.330175 -121.210865 299 6525ft 163kts
08-Aug-20 20:05 36.352101 -121.259999 303 6486ft 163kts
08-Aug-20 20:06 36.373645 -121.305567 302 6486ft 162kts
08-Aug-20 20:07 36.394547 -121.350785 303 6486ft 162kts
08-Aug-20 20:08 36.413641 -121.392086 303 6486ft 162kts
08-Aug-20 20:09 36.436609 -121.444907 298 6486ft 163kts
08-Aug-20 20:10 36.455908 -121.496087 298 6389ft 168kts
08-Aug-20 20:11 36.474556 -121.544882 300 5874ft 147kts
08-Aug-20 20:12 36.494330 -121.587611 303 5400ft 148kts
08-Aug-20 20:13 36.517553 -121.624943 288 4841ft 125kts
08-Aug-20 20:14 36.522753 -121.662698 282 4589ft 102kts
08-Aug-20 20:15 36.523612 -121.696721 256 4593ft 101kts
08-Aug-20 20:16 36.525484 -121.727508 326 4575ft 93kts
08-Aug-20 20:17 36.548460 -121.745247 320 3722ft 100kts
08-Aug-20 20:18 36.562386 -121.772685 295 2346ft 91kts
08-Aug-20 20:19 36.572242 -121.800893 294 1254ft 89kts
08-Aug-20 20:20 36.581566 -121.828358 293 413ft 84kts
08-Aug-20 20:21 36.586882 -121.845941 225 259ft 6kts
08-Aug-20 20:22 36.586868 -121.845959 228 259ft 0kts
08-Aug-20 20:23 36.585569 -121.846445 287 259ft 0kts

Navigation Log

Ident Type
Flight plan parsing failed, navigation log unavailable